Main page
METAR-TAF:

METAR-TAF

Airports :

Tehran, Iran

Mehrabad International Airport

latitude: 35-41N, longitude: 051-21E, elevation: 1204 m

Current weather observation

The report was made 38 minutes ago, at 23:30 UTC
Wind 6 kt from the West
Temperature 5°C
Humidity 52%
Pressure 1018 hPa
Visibility 10 km or more
no clouds below 1500 m and no cumulonimbus

METAR: OIII 262330Z 27006KT CAVOK 05/M04 Q1018 A3007 NOSIG

Time: 03:38 (00:08 UTC)

Forecast

The report was made 38 minutes ago, at 23:30 UTC
Forecast valid from 27 at 00 UTC to 28 at 06 UTC
Wind 8 kt from the West
Visibility: 7000 m

TAF: OIII 262330Z 2700/2806 28004MPS 7000 NSC

Weather observations and forecasts of more than 4000 airports (METAR and TAF reports).

The available stations are represented by yellow and red dots on the map.

Hover mouse over dot to see the name of the station.

Then click to see weather observations and forecasts.

To change the map : click on the green buttons with a black cross to zoom in, on the green button with a dash to zoom out, or on the green arrows for adjacent maps.


METAR-TAF: